Bookmark and Share
Track history (hours):
 

Sea-land Meteor

More information available from US FCC via Universal Licensing System.

Last reported at 2013-May-14 02:21 UTC. Time now 2014-Apr-18 18:16 UTC.
Position N 25°06' E 054°58'.
Warning: this ship's position is months out of date.

Type: Cargo ship. MMSI: 338401000.

NotesDate/timePositionNaut miles runAvg speedWind from/ knotsBaromVisibWave heightAir tempDewpointWater temp
2013-May-14 02:21N 25°06' E 054°58'5 6.1
2013-May-14 01:28N 25°10' E 054°53'6 6.7
2013-May-14 00:33N 25°16' E 054°53'10 9.6
2013-May-13 23:33N 25°25' E 054°57'1010.2
2013-May-13 22:33N 25°33' E 055°04'1111.3
2013-May-13 21:33N 25°40' E 055°13'1111.4
2013-May-13 20:33N 25°48' E 055°23'2311.6
2013-May-13 18:33N 26°03' E 055°42'1211.9
2013-May-13 17:33N 26°11' E 055°52'2311.4
2013-May-13 15:33N 26°27' E 056°10'1111.4
2013-May-13 14:33N 26°35' E 056°20'  
2013-May-06 04:10N 30°22' E 032°22'24 8.4
2013-May-06 01:19N 30°45' E 032°20'18 8.8
2013-May-05 23:18N 31°03' E 032°19'8 9.2
2013-May-05 22:27N 31°11' E 032°20'8 8.9
2013-May-05 21:33N 31°19' E 032°22'6 3.8
2013-May-05 20:04N 31°24' E 032°19'0 0.1
2013-May-05 18:32N 31°24' E 032°19'0 0.0
2013-May-05 17:22N 31°24' E 032°19'0 0.1
2013-May-05 16:33N 31°24' E 032°19'4 3.6
2013-May-05 15:33N 31°26' E 032°16'1010.2
2013-May-05 14:33N 31°34' E 032°09'1111.2
2013-May-05 13:33N 31°42' E 032°00'1919.4
2013-May-05 12:33N 31°53' E 031°41'2019.6
2013-May-05 11:31N 32°04' E 031°21'1819.1
2013-May-05 10:33N 32°14' E 031°03'1918.7
2013-May-05 09:33N 32°20' E 030°42'1919.5
2013-May-05 08:33N 32°25' E 030°19'2019.8
2013-May-05 07:33N 32°30' E 029°56'1919.6
2013-May-05 06:33N 32°36' E 029°34'3919.4
2013-May-05 04:33N 32°47' E 028°50'2119.7
2013-May-05 03:30N 32°53' E 028°27'  

Dump ship's entire track history

sailing weather and tide predictions

Sea-land Meteor — WDB9951 — position and weather